Terminal Aerodrome Forecast
Issued by NWS

Home | Current Version | Previous Version | Text Only | Print | Product List | Glossary On
Versions: 1 2 3 4 5 6 7 8 9 10 11 12
000
FTUS44 KLIX 261100 RRA
TAFMCB
TAF
KMCB 261140Z 2612/2712 VRB03KT P6SM BKN250
     FM261800 13006KT P6SM SCT027 BKN035
     FM270600 14008KT 5SM -SHRA BR OVC025
     FM270800 12007KT 3SM SHRA BR OVC008=

USA.gov is the U.S. government's official web portal to all federal, state and local government web resources and services.